sensor_id;sensor_type;location;lat;lon;timestamp;P1;durP1;ratioP1;P2;durP2;ratioP2
23080;SDS011;72373;50.562;8.498;2023-12-20T00:01:35;2.45;;;1.95;;
23080;SDS011;72373;50.562;8.498;2023-12-20T00:04:00;2.55;;;1.85;;
23080;SDS011;72373;50.562;8.498;2023-12-20T00:06:26;2.22;;;1.67;;
23080;SDS011;72373;50.562;8.498;2023-12-20T00:08:52;2.70;;;1.90;;
23080;SDS011;72373;50.562;8.498;2023-12-20T00:11:18;2.72;;;1.85;;
23080;SDS011;72373;50.562;8.498;2023-12-20T00:13:44;3.30;;;1.60;;
23080;SDS011;72373;50.562;8.498;2023-12-20T00:16:09;3.13;;;1.90;;
23080;SDS011;72373;50.562;8.498;2023-12-20T00:18:35;4.38;;;1.70;;
23080;SDS011;72373;50.562;8.498;2023-12-20T00:21:00;1.83;;;1.60;;
23080;SDS011;72373;50.562;8.498;2023-12-20T00:23:26;2.63;;;1.60;;
23080;SDS011;72373;50.562;8.498;2023-12-20T00:25:51;3.00;;;1.98;;
23080;SDS011;72373;50.562;8.498;2023-12-20T00:28:17;2.15;;;1.70;;
23080;SDS011;72373;50.562;8.498;2023-12-20T00:30:42;3.00;;;1.77;;
23080;SDS011;72373;50.562;8.498;2023-12-20T00:33:08;2.55;;;1.98;;
23080;SDS011;72373;50.562;8.498;2023-12-20T00:35:34;2.17;;;1.70;;
23080;SDS011;72373;50.562;8.498;2023-12-20T00:37:59;1.65;;;1.52;;
23080;SDS011;72373;50.562;8.498;2023-12-20T00:40:25;1.90;;;1.48;;
23080;SDS011;72373;50.562;8.498;2023-12-20T00:42:51;2.45;;;1.83;;
23080;SDS011;72373;50.562;8.498;2023-12-20T00:45:16;2.45;;;1.77;;
23080;SDS011;72373;50.562;8.498;2023-12-20T00:47:42;2.28;;;1.48;;
23080;SDS011;72373;50.562;8.498;2023-12-20T00:50:08;3.40;;;1.77;;
23080;SDS011;72373;50.562;8.498;2023-12-20T00:52:34;2.00;;;1.60;;
23080;SDS011;72373;50.562;8.498;2023-12-20T00:54:59;1.98;;;1.60;;
23080;SDS011;72373;50.562;8.498;2023-12-20T00:57:25;2.40;;;1.48;;
23080;SDS011;72373;50.562;8.498;2023-12-20T00:59:50;1.95;;;1.60;;
23080;SDS011;72373;50.562;8.498;2023-12-20T01:02:16;2.05;;;1.63;;
23080;SDS011;72373;50.562;8.498;2023-12-20T01:04:41;1.40;;;1.30;;
23080;SDS011;72373;50.562;8.498;2023-12-20T01:07:07;1.60;;;1.15;;
23080;SDS011;72373;50.562;8.498;2023-12-20T01:09:33;1.88;;;1.40;;
23080;SDS011;72373;50.562;8.498;2023-12-20T01:11:58;2.28;;;1.58;;
23080;SDS011;72373;50.562;8.498;2023-12-20T01:14:24;2.40;;;1.65;;
23080;SDS011;72373;50.562;8.498;2023-12-20T01:16:49;2.65;;;1.58;;
23080;SDS011;72373;50.562;8.498;2023-12-20T01:19:15;2.10;;;1.48;;
23080;SDS011;72373;50.562;8.498;2023-12-20T01:21:41;2.55;;;1.77;;
23080;SDS011;72373;50.562;8.498;2023-12-20T01:24:06;2.47;;;1.67;;
23080;SDS011;72373;50.562;8.498;2023-12-20T01:26:32;1.90;;;1.70;;
23080;SDS011;72373;50.562;8.498;2023-12-20T01:28:57;2.50;;;1.70;;
23080;SDS011;72373;50.562;8.498;2023-12-20T01:31:23;2.72;;;1.60;;
23080;SDS011;72373;50.562;8.498;2023-12-20T01:33:48;2.65;;;1.73;;
23080;SDS011;72373;50.562;8.498;2023-12-20T01:36:14;1.45;;;1.33;;
23080;SDS011;72373;50.562;8.498;2023-12-20T01:38:39;1.90;;;1.63;;
23080;SDS011;72373;50.562;8.498;2023-12-20T01:41:05;2.83;;;1.65;;
23080;SDS011;72373;50.562;8.498;2023-12-20T01:43:31;2.08;;;1.48;;
23080;SDS011;72373;50.562;8.498;2023-12-20T01:45:57;2.03;;;1.73;;
23080;SDS011;72373;50.562;8.498;2023-12-20T01:48:23;1.40;;;1.30;;
23080;SDS011;72373;50.562;8.498;2023-12-20T01:50:50;2.45;;;1.60;;
23080;SDS011;72373;50.562;8.498;2023-12-20T01:53:16;1.55;;;1.40;;
23080;SDS011;72373;50.562;8.498;2023-12-20T01:55:43;3.13;;;1.48;;
23080;SDS011;72373;50.562;8.498;2023-12-20T01:58:09;3.30;;;1.60;;
23080;SDS011;72373;50.562;8.498;2023-12-20T02:00:37;1.67;;;1.52;;
23080;SDS011;72373;50.562;8.498;2023-12-20T02:03:03;2.47;;;1.70;;
23080;SDS011;72373;50.562;8.498;2023-12-20T02:05:33;1.70;;;1.52;;
23080;SDS011;72373;50.562;8.498;2023-12-20T02:07:59;3.17;;;1.50;;
23080;SDS011;72373;50.562;8.498;2023-12-20T02:10:25;1.98;;;1.77;;
23080;SDS011;72373;50.562;8.498;2023-12-20T02:12:52;2.95;;;1.77;;
23080;SDS011;72373;50.562;8.498;2023-12-20T02:15:17;2.60;;;1.90;;
23080;SDS011;72373;50.562;8.498;2023-12-20T02:17:43;2.22;;;1.88;;
23080;SDS011;72373;50.562;8.498;2023-12-20T02:20:10;2.88;;;2.10;;
23080;SDS011;72373;50.562;8.498;2023-12-20T02:22:36;2.50;;;1.90;;
23080;SDS011;72373;50.562;8.498;2023-12-20T02:25:01;2.17;;;1.73;;
23080;SDS011;72373;50.562;8.498;2023-12-20T02:27:27;3.13;;;2.05;;
23080;SDS011;72373;50.562;8.498;2023-12-20T02:29:53;2.35;;;2.00;;
23080;SDS011;72373;50.562;8.498;2023-12-20T02:32:19;3.75;;;2.17;;
23080;SDS011;72373;50.562;8.498;2023-12-20T02:34:49;2.20;;;2.00;;
23080;SDS011;72373;50.562;8.498;2023-12-20T02:37:14;2.90;;;2.28;;
23080;SDS011;72373;50.562;8.498;2023-12-20T02:39:40;2.90;;;2.28;;
23080;SDS011;72373;50.562;8.498;2023-12-20T02:42:05;2.65;;;2.13;;
23080;SDS011;72373;50.562;8.498;2023-12-20T02:44:31;2.85;;;2.20;;
23080;SDS011;72373;50.562;8.498;2023-12-20T02:46:56;4.38;;;1.88;;
23080;SDS011;72373;50.562;8.498;2023-12-20T02:49:22;2.78;;;2.10;;
23080;SDS011;72373;50.562;8.498;2023-12-20T02:51:47;2.80;;;2.05;;
23080;SDS011;72373;50.562;8.498;2023-12-20T02:54:13;2.80;;;2.28;;
23080;SDS011;72373;50.562;8.498;2023-12-20T02:56:39;3.17;;;2.30;;
23080;SDS011;72373;50.562;8.498;2023-12-20T02:59:04;3.03;;;2.50;;
23080;SDS011;72373;50.562;8.498;2023-12-20T03:01:34;3.22;;;2.55;;
23080;SDS011;72373;50.562;8.498;2023-12-20T03:04:00;4.00;;;2.90;;
23080;SDS011;72373;50.562;8.498;2023-12-20T03:06:26;3.95;;;2.78;;
23080;SDS011;72373;50.562;8.498;2023-12-20T03:08:52;4.95;;;3.22;;
23080;SDS011;72373;50.562;8.498;2023-12-20T03:11:17;3.92;;;2.83;;
23080;SDS011;72373;50.562;8.498;2023-12-20T03:13:43;4.05;;;3.10;;
23080;SDS011;72373;50.562;8.498;2023-12-20T03:16:09;4.28;;;3.30;;
23080;SDS011;72373;50.562;8.498;2023-12-20T03:18:38;4.88;;;3.20;;
23080;SDS011;72373;50.562;8.498;2023-12-20T03:21:04;3.67;;;2.83;;
23080;SDS011;72373;50.562;8.498;2023-12-20T03:23:30;4.95;;;3.38;;
23080;SDS011;72373;50.562;8.498;2023-12-20T03:25:57;4.28;;;3.17;;
23080;SDS011;72373;50.562;8.498;2023-12-20T03:28:23;4.80;;;3.28;;
23080;SDS011;72373;50.562;8.498;2023-12-20T03:30:49;4.72;;;3.55;;
23080;SDS011;72373;50.562;8.498;2023-12-20T03:33:14;4.90;;;3.88;;
23080;SDS011;72373;50.562;8.498;2023-12-20T03:35:40;5.40;;;3.28;;
23080;SDS011;72373;50.562;8.498;2023-12-20T03:38:06;4.28;;;3.63;;
23080;SDS011;72373;50.562;8.498;2023-12-20T03:40:32;6.00;;;3.50;;
23080;SDS011;72373;50.562;8.498;2023-12-20T03:42:57;4.63;;;3.50;;
23080;SDS011;72373;50.562;8.498;2023-12-20T03:45:23;6.57;;;3.65;;
23080;SDS011;72373;50.562;8.498;2023-12-20T03:47:48;5.50;;;3.30;;
23080;SDS011;72373;50.562;8.498;2023-12-20T03:50:14;6.22;;;3.67;;
23080;SDS011;72373;50.562;8.498;2023-12-20T03:52:40;4.78;;;3.17;;
23080;SDS011;72373;50.562;8.498;2023-12-20T03:55:05;5.55;;;3.15;;
23080;SDS011;72373;50.562;8.498;2023-12-20T03:57:31;4.22;;;3.00;;
23080;SDS011;72373;50.562;8.498;2023-12-20T03:59:56;5.18;;;3.20;;
23080;SDS011;72373;50.562;8.498;2023-12-20T04:02:22;7.22;;;3.78;;
23080;SDS011;72373;50.562;8.498;2023-12-20T04:04:47;5.22;;;3.60;;
23080;SDS011;72373;50.562;8.498;2023-12-20T04:07:13;5.60;;;3.30;;
23080;SDS011;72373;50.562;8.498;2023-12-20T04:09:40;5.15;;;3.40;;
23080;SDS011;72373;50.562;8.498;2023-12-20T04:12:06;5.50;;;3.67;;
23080;SDS011;72373;50.562;8.498;2023-12-20T04:14:32;6.20;;;3.50;;
23080;SDS011;72373;50.562;8.498;2023-12-20T04:16:57;8.27;;;3.38;;
23080;SDS011;72373;50.562;8.498;2023-12-20T04:19:23;6.32;;;3.22;;
23080;SDS011;72373;50.562;8.498;2023-12-20T04:21:48;9.50;;;4.13;;
23080;SDS011;72373;50.562;8.498;2023-12-20T04:24:14;7.60;;;4.22;;
23080;SDS011;72373;50.562;8.498;2023-12-20T04:26:39;8.48;;;3.55;;
23080;SDS011;72373;50.562;8.498;2023-12-20T04:29:05;6.65;;;3.63;;
23080;SDS011;72373;50.562;8.498;2023-12-20T04:31:30;6.32;;;3.05;;
23080;SDS011;72373;50.562;8.498;2023-12-20T04:33:56;6.65;;;3.63;;
23080;SDS011;72373;50.562;8.498;2023-12-20T04:36:21;7.50;;;3.60;;
23080;SDS011;72373;50.562;8.498;2023-12-20T04:38:47;8.32;;;4.03;;
23080;SDS011;72373;50.562;8.498;2023-12-20T04:41:12;6.95;;;4.05;;
23080;SDS011;72373;50.562;8.498;2023-12-20T04:43:40;13.57;;;4.50;;
23080;SDS011;72373;50.562;8.498;2023-12-20T04:46:06;10.93;;;4.20;;
23080;SDS011;72373;50.562;8.498;2023-12-20T04:48:32;8.80;;;4.07;;
23080;SDS011;72373;50.562;8.498;2023-12-20T04:50:57;7.38;;;4.25;;
23080;SDS011;72373;50.562;8.498;2023-12-20T04:53:23;13.52;;;4.95;;
23080;SDS011;72373;50.562;8.498;2023-12-20T04:55:48;9.30;;;4.35;;
23080;SDS011;72373;50.562;8.498;2023-12-20T04:58:14;8.52;;;3.95;;
23080;SDS011;72373;50.562;8.498;2023-12-20T05:00:39;10.40;;;4.63;;
23080;SDS011;72373;50.562;8.498;2023-12-20T05:03:05;8.20;;;3.90;;
23080;SDS011;72373;50.562;8.498;2023-12-20T05:05:31;8.20;;;4.78;;
23080;SDS011;72373;50.562;8.498;2023-12-20T05:07:57;12.13;;;4.47;;
23080;SDS011;72373;50.562;8.498;2023-12-20T05:10:22;7.25;;;4.20;;
23080;SDS011;72373;50.562;8.498;2023-12-20T05:12:47;7.90;;;4.25;;
23080;SDS011;72373;50.562;8.498;2023-12-20T05:15:13;5.05;;;3.38;;
23080;SDS011;72373;50.562;8.498;2023-12-20T05:17:38;7.47;;;2.97;;
23080;SDS011;72373;50.562;8.498;2023-12-20T05:20:04;8.68;;;3.75;;
23080;SDS011;72373;50.562;8.498;2023-12-20T05:22:31;7.10;;;3.55;;
23080;SDS011;72373;50.562;8.498;2023-12-20T05:24:56;10.27;;;3.67;;
23080;SDS011;72373;50.562;8.498;2023-12-20T05:27:21;7.25;;;3.45;;
23080;SDS011;72373;50.562;8.498;2023-12-20T05:29:47;9.00;;;3.70;;
23080;SDS011;72373;50.562;8.498;2023-12-20T05:32:12;8.88;;;4.00;;
23080;SDS011;72373;50.562;8.498;2023-12-20T05:34:39;6.43;;;3.60;;
23080;SDS011;72373;50.562;8.498;2023-12-20T05:37:04;11.95;;;3.80;;
23080;SDS011;72373;50.562;8.498;2023-12-20T05:39:30;7.93;;;3.58;;
23080;SDS011;72373;50.562;8.498;2023-12-20T05:41:56;11.50;;;4.38;;
23080;SDS011;72373;50.562;8.498;2023-12-20T05:44:21;8.68;;;3.70;;
23080;SDS011;72373;50.562;8.498;2023-12-20T05:46:47;12.10;;;5.43;;
23080;SDS011;72373;50.562;8.498;2023-12-20T05:49:12;6.85;;;4.10;;
23080;SDS011;72373;50.562;8.498;2023-12-20T05:51:38;10.45;;;4.25;;
23080;SDS011;72373;50.562;8.498;2023-12-20T05:54:04;10.25;;;5.53;;
23080;SDS011;72373;50.562;8.498;2023-12-20T05:56:29;9.43;;;4.60;;
23080;SDS011;72373;50.562;8.498;2023-12-20T05:58:55;10.02;;;3.85;;
23080;SDS011;72373;50.562;8.498;2023-12-20T06:01:20;7.70;;;3.55;;
23080;SDS011;72373;50.562;8.498;2023-12-20T06:03:46;7.78;;;3.60;;
23080;SDS011;72373;50.562;8.498;2023-12-20T06:06:11;6.55;;;3.05;;
23080;SDS011;72373;50.562;8.498;2023-12-20T06:08:40;5.80;;;2.50;;
23080;SDS011;72373;50.562;8.498;2023-12-20T06:11:06;12.23;;;2.70;;
23080;SDS011;72373;50.562;8.498;2023-12-20T06:13:31;5.45;;;2.92;;
23080;SDS011;72373;50.562;8.498;2023-12-20T06:15:57;7.53;;;2.67;;
23080;SDS011;72373;50.562;8.498;2023-12-20T06:18:23;8.70;;;3.30;;
23080;SDS011;72373;50.562;8.498;2023-12-20T06:20:49;5.68;;;2.97;;
23080;SDS011;72373;50.562;8.498;2023-12-20T06:23:15;4.03;;;2.90;;
23080;SDS011;72373;50.562;8.498;2023-12-20T06:25:40;11.32;;;3.42;;
23080;SDS011;72373;50.562;8.498;2023-12-20T06:28:06;6.53;;;3.38;;
23080;SDS011;72373;50.562;8.498;2023-12-20T06:30:31;6.78;;;2.80;;
23080;SDS011;72373;50.562;8.498;2023-12-20T06:32:58;8.55;;;2.63;;
23080;SDS011;72373;50.562;8.498;2023-12-20T06:35:23;5.47;;;2.80;;
23080;SDS011;72373;50.562;8.498;2023-12-20T06:37:49;10.90;;;3.10;;
23080;SDS011;72373;50.562;8.498;2023-12-20T06:40:15;10.85;;;3.00;;
23080;SDS011;72373;50.562;8.498;2023-12-20T06:42:41;8.07;;;2.70;;
23080;SDS011;72373;50.562;8.498;2023-12-20T06:45:07;8.98;;;3.42;;
23080;SDS011;72373;50.562;8.498;2023-12-20T06:47:32;12.38;;;3.38;;
23080;SDS011;72373;50.562;8.498;2023-12-20T06:49:58;8.57;;;3.10;;
23080;SDS011;72373;50.562;8.498;2023-12-20T06:52:23;12.00;;;3.40;;
23080;SDS011;72373;50.562;8.498;2023-12-20T06:54:49;7.95;;;3.33;;
23080;SDS011;72373;50.562;8.498;2023-12-20T06:57:14;7.30;;;3.20;;
23080;SDS011;72373;50.562;8.498;2023-12-20T06:59:40;6.50;;;3.17;;
23080;SDS011;72373;50.562;8.498;2023-12-20T07:02:06;7.50;;;2.92;;
23080;SDS011;72373;50.562;8.498;2023-12-20T07:04:31;11.57;;;3.03;;
23080;SDS011;72373;50.562;8.498;2023-12-20T07:06:57;9.73;;;3.67;;
23080;SDS011;72373;50.562;8.498;2023-12-20T07:09:25;10.60;;;3.25;;
23080;SDS011;72373;50.562;8.498;2023-12-20T07:11:51;8.57;;;3.28;;
23080;SDS011;72373;50.562;8.498;2023-12-20T07:14:16;8.93;;;2.70;;
23080;SDS011;72373;50.562;8.498;2023-12-20T07:16:42;10.50;;;3.03;;
23080;SDS011;72373;50.562;8.498;2023-12-20T07:19:07;6.20;;;2.97;;
23080;SDS011;72373;50.562;8.498;2023-12-20T07:21:33;6.00;;;2.88;;
23080;SDS011;72373;50.562;8.498;2023-12-20T07:23:58;13.35;;;3.30;;
23080;SDS011;72373;50.562;8.498;2023-12-20T07:26:24;8.50;;;3.05;;
23080;SDS011;72373;50.562;8.498;2023-12-20T07:28:50;8.65;;;3.08;;
23080;SDS011;72373;50.562;8.498;2023-12-20T07:31:15;7.13;;;3.17;;
23080;SDS011;72373;50.562;8.498;2023-12-20T07:33:41;11.32;;;3.50;;
23080;SDS011;72373;50.562;8.498;2023-12-20T07:36:07;7.75;;;3.03;;
23080;SDS011;72373;50.562;8.498;2023-12-20T07:38:33;9.73;;;3.92;;
23080;SDS011;72373;50.562;8.498;2023-12-20T07:40:58;10.02;;;3.13;;
23080;SDS011;72373;50.562;8.498;2023-12-20T07:43:24;10.38;;;3.42;;
23080;SDS011;72373;50.562;8.498;2023-12-20T07:45:50;8.43;;;2.85;;
23080;SDS011;72373;50.562;8.498;2023-12-20T07:48:15;9.73;;;3.00;;
23080;SDS011;72373;50.562;8.498;2023-12-20T07:50:41;12.52;;;3.42;;
23080;SDS011;72373;50.562;8.498;2023-12-20T07:53:07;5.95;;;3.10;;
23080;SDS011;72373;50.562;8.498;2023-12-20T07:55:32;11.90;;;3.97;;
23080;SDS011;72373;50.562;8.498;2023-12-20T07:57:59;7.07;;;3.28;;
23080;SDS011;72373;50.562;8.498;2023-12-20T08:00:25;14.68;;;3.80;;
23080;SDS011;72373;50.562;8.498;2023-12-20T08:02:50;8.80;;;3.40;;
23080;SDS011;72373;50.562;8.498;2023-12-20T08:05:16;13.05;;;3.92;;
23080;SDS011;72373;50.562;8.498;2023-12-20T08:07:41;9.95;;;3.35;;
23080;SDS011;72373;50.562;8.498;2023-12-20T08:10:07;14.73;;;4.20;;
23080;SDS011;72373;50.562;8.498;2023-12-20T08:12:33;8.02;;;3.42;;
23080;SDS011;72373;50.562;8.498;2023-12-20T08:14:59;10.32;;;3.58;;
23080;SDS011;72373;50.562;8.498;2023-12-20T08:17:24;5.82;;;2.85;;
23080;SDS011;72373;50.562;8.498;2023-12-20T08:19:50;11.75;;;3.08;;
23080;SDS011;72373;50.562;8.498;2023-12-20T08:22:16;13.48;;;3.10;;
23080;SDS011;72373;50.562;8.498;2023-12-20T08:24:41;7.82;;;3.00;;
23080;SDS011;72373;50.562;8.498;2023-12-20T08:27:07;11.25;;;4.35;;
23080;SDS011;72373;50.562;8.498;2023-12-20T08:29:34;10.80;;;3.03;;
23080;SDS011;72373;50.562;8.498;2023-12-20T08:32:00;8.27;;;2.60;;
23080;SDS011;72373;50.562;8.498;2023-12-20T08:34:25;8.25;;;2.65;;
23080;SDS011;72373;50.562;8.498;2023-12-20T08:36:51;8.82;;;3.00;;
23080;SDS011;72373;50.562;8.498;2023-12-20T08:39:17;10.90;;;3.15;;
23080;SDS011;72373;50.562;8.498;2023-12-20T08:41:42;6.20;;;3.22;;
23080;SDS011;72373;50.562;8.498;2023-12-20T08:44:08;7.00;;;3.47;;
23080;SDS011;72373;50.562;8.498;2023-12-20T08:46:35;10.68;;;2.80;;
23080;SDS011;72373;50.562;8.498;2023-12-20T08:49:01;10.15;;;3.53;;
23080;SDS011;72373;50.562;8.498;2023-12-20T08:51:27;8.23;;;3.25;;
23080;SDS011;72373;50.562;8.498;2023-12-20T08:53:53;9.52;;;4.32;;
23080;SDS011;72373;50.562;8.498;2023-12-20T08:56:19;7.38;;;3.00;;
23080;SDS011;72373;50.562;8.498;2023-12-20T08:58:45;8.20;;;3.45;;
23080;SDS011;72373;50.562;8.498;2023-12-20T09:01:11;14.18;;;3.40;;
23080;SDS011;72373;50.562;8.498;2023-12-20T09:03:37;8.90;;;3.58;;
23080;SDS011;72373;50.562;8.498;2023-12-20T09:06:03;10.90;;;3.45;;
23080;SDS011;72373;50.562;8.498;2023-12-20T09:08:28;6.43;;;3.45;;
23080;SDS011;72373;50.562;8.498;2023-12-20T09:10:54;10.00;;;3.08;;
23080;SDS011;72373;50.562;8.498;2023-12-20T09:13:19;14.65;;;3.10;;
23080;SDS011;72373;50.562;8.498;2023-12-20T09:15:47;10.27;;;3.30;;
23080;SDS011;72373;50.562;8.498;2023-12-20T09:18:12;9.77;;;3.22;;
23080;SDS011;72373;50.562;8.498;2023-12-20T09:20:38;10.50;;;2.85;;
23080;SDS011;72373;50.562;8.498;2023-12-20T09:23:03;13.52;;;3.15;;
23080;SDS011;72373;50.562;8.498;2023-12-20T09:25:29;8.02;;;3.08;;
23080;SDS011;72373;50.562;8.498;2023-12-20T09:27:54;11.80;;;3.42;;
23080;SDS011;72373;50.562;8.498;2023-12-20T09:30:20;7.80;;;2.92;;
23080;SDS011;72373;50.562;8.498;2023-12-20T09:32:46;12.15;;;3.72;;
23080;SDS011;72373;50.562;8.498;2023-12-20T09:35:11;9.10;;;3.33;;
23080;SDS011;72373;50.562;8.498;2023-12-20T09:37:37;10.70;;;3.85;;
23080;SDS011;72373;50.562;8.498;2023-12-20T09:40:03;11.60;;;3.50;;
23080;SDS011;72373;50.562;8.498;2023-12-20T09:42:32;7.75;;;3.10;;
23080;SDS011;72373;50.562;8.498;2023-12-20T09:45:10;10.00;;;3.05;;
23080;SDS011;72373;50.562;8.498;2023-12-20T09:47:39;9.43;;;3.00;;
23080;SDS011;72373;50.562;8.498;2023-12-20T09:50:06;7.15;;;2.42;;
23080;SDS011;72373;50.562;8.498;2023-12-20T09:52:32;7.60;;;2.83;;
23080;SDS011;72373;50.562;8.498;2023-12-20T09:54:59;12.27;;;2.70;;
23080;SDS011;72373;50.562;8.498;2023-12-20T09:57:26;7.28;;;2.83;;
23080;SDS011;72373;50.562;8.498;2023-12-20T09:59:52;10.55;;;3.08;;
23080;SDS011;72373;50.562;8.498;2023-12-20T10:02:17;7.20;;;2.65;;
23080;SDS011;72373;50.562;8.498;2023-12-20T10:04:47;6.82;;;2.55;;
23080;SDS011;72373;50.562;8.498;2023-12-20T10:07:13;9.45;;;2.97;;
23080;SDS011;72373;50.562;8.498;2023-12-20T10:09:38;10.82;;;3.38;;
23080;SDS011;72373;50.562;8.498;2023-12-20T10:12:05;9.70;;;3.15;;
23080;SDS011;72373;50.562;8.498;2023-12-20T10:14:32;9.57;;;2.47;;
23080;SDS011;72373;50.562;8.498;2023-12-20T10:17:04;10.63;;;2.72;;
23080;SDS011;72373;50.562;8.498;2023-12-20T10:19:31;11.75;;;2.65;;
23080;SDS011;72373;50.562;8.498;2023-12-20T10:21:57;9.63;;;3.20;;
23080;SDS011;72373;50.562;8.498;2023-12-20T10:24:24;6.25;;;2.50;;
23080;SDS011;72373;50.562;8.498;2023-12-20T10:27:00;7.40;;;3.00;;
23080;SDS011;72373;50.562;8.498;2023-12-20T10:29:33;9.15;;;2.50;;
23080;SDS011;72373;50.562;8.498;2023-12-20T10:32:00;6.53;;;2.58;;
23080;SDS011;72373;50.562;8.498;2023-12-20T10:34:50;4.22;;;2.38;;
23080;SDS011;72373;50.562;8.498;2023-12-20T10:37:16;8.68;;;2.63;;
23080;SDS011;72373;50.562;8.498;2023-12-20T10:39:48;11.02;;;2.63;;
23080;SDS011;72373;50.562;8.498;2023-12-20T10:42:16;8.38;;;2.08;;
23080;SDS011;72373;50.562;8.498;2023-12-20T10:44:46;9.43;;;3.60;;
23080;SDS011;72373;50.562;8.498;2023-12-20T10:47:12;6.15;;;2.30;;
23080;SDS011;72373;50.562;8.498;2023-12-20T10:49:38;11.10;;;2.60;;
23080;SDS011;72373;50.562;8.498;2023-12-20T10:52:05;10.48;;;2.55;;
23080;SDS011;72373;50.562;8.498;2023-12-20T10:54:32;5.97;;;2.58;;
23080;SDS011;72373;50.562;8.498;2023-12-20T10:56:58;9.40;;;2.60;;
23080;SDS011;72373;50.562;8.498;2023-12-20T10:59:25;9.27;;;2.90;;
23080;SDS011;72373;50.562;8.498;2023-12-20T11:01:54;10.73;;;2.63;;
23080;SDS011;72373;50.562;8.498;2023-12-20T11:04:24;7.47;;;2.30;;
23080;SDS011;72373;50.562;8.498;2023-12-20T11:06:56;9.30;;;2.72;;
23080;SDS011;72373;50.562;8.498;2023-12-20T11:09:38;8.25;;;2.80;;
23080;SDS011;72373;50.562;8.498;2023-12-20T11:12:09;5.38;;;2.25;;
23080;SDS011;72373;50.562;8.498;2023-12-20T11:17:15;12.15;;;2.47;;
23080;SDS011;72373;50.562;8.498;2023-12-20T11:22:19;8.95;;;3.25;;
23080;SDS011;72373;50.562;8.498;2023-12-20T11:24:46;6.25;;;2.20;;
23080;SDS011;72373;50.562;8.498;2023-12-20T11:27:12;6.07;;;2.92;;
23080;SDS011;72373;50.562;8.498;2023-12-20T11:29:38;8.63;;;3.13;;
23080;SDS011;72373;50.562;8.498;2023-12-20T11:37:36;11.68;;;3.10;;
23080;SDS011;72373;50.562;8.498;2023-12-20T11:42:40;4.85;;;2.47;;
23080;SDS011;72373;50.562;8.498;2023-12-20T11:45:24;11.45;;;2.80;;
23080;SDS011;72373;50.562;8.498;2023-12-20T11:47:51;11.32;;;3.10;;
23080;SDS011;72373;50.562;8.498;2023-12-20T11:50:19;10.45;;;2.90;;
23080;SDS011;72373;50.562;8.498;2023-12-20T11:52:46;8.05;;;3.33;;
23080;SDS011;72373;50.562;8.498;2023-12-20T11:55:12;8.93;;;2.85;;
23080;SDS011;72373;50.562;8.498;2023-12-20T11:57:37;6.68;;;3.15;;
23080;SDS011;72373;50.562;8.498;2023-12-20T12:00:03;7.90;;;3.47;;
23080;SDS011;72373;50.562;8.498;2023-12-20T12:02:30;7.30;;;2.95;;
23080;SDS011;72373;50.562;8.498;2023-12-20T12:04:56;7.57;;;2.60;;
23080;SDS011;72373;50.562;8.498;2023-12-20T12:07:23;7.78;;;2.80;;
23080;SDS011;72373;50.562;8.498;2023-12-20T12:09:49;11.95;;;3.10;;
23080;SDS011;72373;50.562;8.498;2023-12-20T12:12:14;7.03;;;2.72;;
23080;SDS011;72373;50.562;8.498;2023-12-20T12:14:40;10.50;;;2.95;;
23080;SDS011;72373;50.562;8.498;2023-12-20T12:17:12;8.43;;;3.13;;
23080;SDS011;72373;50.562;8.498;2023-12-20T12:19:39;5.97;;;2.83;;
23080;SDS011;72373;50.562;8.498;2023-12-20T12:22:05;9.32;;;3.20;;
23080;SDS011;72373;50.562;8.498;2023-12-20T12:24:48;7.97;;;2.97;;
23080;SDS011;72373;50.562;8.498;2023-12-20T12:27:14;9.13;;;3.25;;
23080;SDS011;72373;50.562;8.498;2023-12-20T12:29:40;6.88;;;2.83;;
23080;SDS011;72373;50.562;8.498;2023-12-20T12:32:24;10.30;;;4.18;;
23080;SDS011;72373;50.562;8.498;2023-12-20T12:34:50;8.32;;;2.97;;
23080;SDS011;72373;50.562;8.498;2023-12-20T12:37:16;9.20;;;3.10;;
23080;SDS011;72373;50.562;8.498;2023-12-20T12:39:42;7.90;;;3.65;;
23080;SDS011;72373;50.562;8.498;2023-12-20T12:42:07;6.68;;;3.00;;
23080;SDS011;72373;50.562;8.498;2023-12-20T12:44:33;11.35;;;3.30;;
23080;SDS011;72373;50.562;8.498;2023-12-20T12:46:58;8.00;;;3.83;;
23080;SDS011;72373;50.562;8.498;2023-12-20T12:49:24;13.35;;;3.13;;
23080;SDS011;72373;50.562;8.498;2023-12-20T12:51:49;6.88;;;2.90;;
23080;SDS011;72373;50.562;8.498;2023-12-20T12:54:15;10.68;;;3.08;;
23080;SDS011;72373;50.562;8.498;2023-12-20T12:56:41;5.50;;;2.72;;
23080;SDS011;72373;50.562;8.498;2023-12-20T12:59:08;13.50;;;3.03;;
23080;SDS011;72373;50.562;8.498;2023-12-20T13:01:34;7.35;;;2.55;;
23080;SDS011;72373;50.562;8.498;2023-12-20T13:03:59;10.07;;;3.13;;
23080;SDS011;72373;50.562;8.498;2023-12-20T13:06:27;8.73;;;3.22;;
23080;SDS011;72373;50.562;8.498;2023-12-20T13:08:53;8.60;;;2.72;;
23080;SDS011;72373;50.562;8.498;2023-12-20T13:11:20;10.77;;;3.53;;
23080;SDS011;72373;50.562;8.498;2023-12-20T13:13:45;9.73;;;3.30;;
23080;SDS011;72373;50.562;8.498;2023-12-20T13:16:11;9.02;;;3.17;;
23080;SDS011;72373;50.562;8.498;2023-12-20T13:18:38;7.53;;;3.33;;
23080;SDS011;72373;50.562;8.498;2023-12-20T13:21:07;8.70;;;3.22;;
23080;SDS011;72373;50.562;8.498;2023-12-20T13:23:33;11.07;;;3.30;;
23080;SDS011;72373;50.562;8.498;2023-12-20T13:25:59;8.88;;;3.35;;
23080;SDS011;72373;50.562;8.498;2023-12-20T13:28:25;5.85;;;3.30;;
23080;SDS011;72373;50.562;8.498;2023-12-20T13:30:50;11.55;;;3.05;;
23080;SDS011;72373;50.562;8.498;2023-12-20T13:33:16;11.15;;;3.17;;
23080;SDS011;72373;50.562;8.498;2023-12-20T13:35:42;10.80;;;2.80;;
23080;SDS011;72373;50.562;8.498;2023-12-20T13:38:07;9.20;;;2.88;;
23080;SDS011;72373;50.562;8.498;2023-12-20T13:40:33;6.65;;;3.10;;
23080;SDS011;72373;50.562;8.498;2023-12-20T13:42:58;11.00;;;3.38;;
23080;SDS011;72373;50.562;8.498;2023-12-20T13:45:24;7.88;;;3.08;;
23080;SDS011;72373;50.562;8.498;2023-12-20T13:47:50;7.30;;;3.10;;
23080;SDS011;72373;50.562;8.498;2023-12-20T13:50:15;11.35;;;3.13;;
23080;SDS011;72373;50.562;8.498;2023-12-20T13:52:41;9.43;;;3.72;;
23080;SDS011;72373;50.562;8.498;2023-12-20T13:55:07;8.77;;;2.88;;
23080;SDS011;72373;50.562;8.498;2023-12-20T13:57:32;4.93;;;3.17;;
23080;SDS011;72373;50.562;8.498;2023-12-20T13:59:59;6.47;;;3.13;;
23080;SDS011;72373;50.562;8.498;2023-12-20T14:02:25;10.35;;;3.72;;
23080;SDS011;72373;50.562;8.498;2023-12-20T14:04:51;6.30;;;3.50;;
23080;SDS011;72373;50.562;8.498;2023-12-20T14:07:17;12.85;;;3.20;;
23080;SDS011;72373;50.562;8.498;2023-12-20T14:09:43;9.90;;;3.10;;
23080;SDS011;72373;50.562;8.498;2023-12-20T14:12:10;7.47;;;3.30;;
23080;SDS011;72373;50.562;8.498;2023-12-20T14:14:36;9.52;;;3.63;;
23080;SDS011;72373;50.562;8.498;2023-12-20T14:17:01;11.02;;;3.60;;
23080;SDS011;72373;50.562;8.498;2023-12-20T14:19:27;9.85;;;3.67;;
23080;SDS011;72373;50.562;8.498;2023-12-20T14:21:53;5.20;;;3.25;;
23080;SDS011;72373;50.562;8.498;2023-12-20T14:24:19;6.32;;;3.38;;
23080;SDS011;72373;50.562;8.498;2023-12-20T14:26:44;10.50;;;3.83;;
23080;SDS011;72373;50.562;8.498;2023-12-20T14:29:10;7.07;;;3.35;;
23080;SDS011;72373;50.562;8.498;2023-12-20T14:31:35;8.15;;;3.17;;
23080;SDS011;72373;50.562;8.498;2023-12-20T14:34:03;6.95;;;3.35;;
23080;SDS011;72373;50.562;8.498;2023-12-20T14:36:29;8.98;;;3.33;;
23080;SDS011;72373;50.562;8.498;2023-12-20T14:38:56;8.23;;;3.25;;
23080;SDS011;72373;50.562;8.498;2023-12-20T14:41:21;8.25;;;3.35;;
23080;SDS011;72373;50.562;8.498;2023-12-20T14:43:49;7.47;;;3.63;;
23080;SDS011;72373;50.562;8.498;2023-12-20T14:46:16;8.27;;;3.38;;
23080;SDS011;72373;50.562;8.498;2023-12-20T14:48:42;6.28;;;3.40;;
23080;SDS011;72373;50.562;8.498;2023-12-20T14:51:07;6.40;;;3.17;;
23080;SDS011;72373;50.562;8.498;2023-12-20T14:53:33;7.00;;;3.58;;